Time;durP1;ratioP1;P1;durP2;ratioP2;P2;SDS_P1;SDS_P2;PMS_P1;PMS_P2;Temp;Humidity;BMP_temperature;BMP_pressure;BME280_temperature;BME280_humidity;BME280_pressure;Samples;Min_cycle;Max_cycle;Signal;HPM_P1;HPM_P2
2022/04/07 00:00:43;;;;;;;6.53;3.77;;;10.30;1.00;;;10.18;60.89;98972.53;4802738;29;20520;-72
2022/04/07 00:03:13;;;;;;;4.87;3.20;;;10.20;1.00;;;10.16;60.94;98963.88;4802691;29;20958;-72
2022/04/07 00:05:42;;;;;;;6.33;3.73;;;10.20;1.00;;;10.21;60.91;98966.66;4804107;29;20502;-72
2022/04/07 00:08:12;;;;;;;6.43;3.17;;;10.20;1.00;;;10.25;60.64;98955.09;4804286;29;20398;-72
2022/04/07 00:10:43;;;;;;;5.80;3.23;;;10.20;1.00;;;10.26;60.69;98947.81;4803626;29;20474;-72
2022/04/07 00:13:12;;;;;;;6.43;3.27;;;10.20;1.00;;;10.17;61.05;98952.78;4817931;29;20513;-73
2022/04/07 00:15:41;;;;;;;8.67;3.20;;;10.20;1.00;;;10.14;61.35;98934.34;4803652;29;20572;-72
2022/04/07 00:18:11;;;;;;;8.10;3.80;;;10.20;1.00;;;10.07;61.60;98935.59;4803828;29;20476;-72
2022/04/07 00:20:43;;;;;;;7.20;4.20;;;10.10;1.00;;;10.21;61.12;98921.53;4818109;29;20441;-72
2022/04/07 00:23:13;;;;;;;11.40;3.80;;;10.20;1.00;;;10.20;61.26;98922.59;4804348;29;20523;-72
2022/04/07 00:25:42;;;;;;;5.60;4.20;;;10.20;1.00;;;10.24;61.50;98914.78;4807119;29;20439;-72
2022/04/07 00:28:11;;;;;;;4.30;3.72;;;10.20;1.00;;;10.24;61.17;98909.38;4807559;29;20437;-72
2022/04/07 00:30:40;;;;;;;3.67;3.38;;;10.20;1.00;;;10.23;61.29;98916.66;4807198;29;20426;-72
2022/04/07 00:33:09;;;;;;;6.63;3.30;;;10.20;1.00;;;10.10;61.58;98905.34;4807736;29;20190;-73
2022/04/07 00:35:39;;;;;;;3.77;3.47;;;10.10;1.00;;;10.08;61.78;98902.06;4807407;29;20716;-72
2022/04/07 00:38:08;;;;;;;4.00;3.60;;;10.10;1.00;;;9.94;62.04;98907.81;4807544;29;20789;-72
2022/04/07 00:40:39;;;;;;;8.77;4.30;;;10.00;1.00;;;10.03;61.87;98900.94;4806831;29;20562;-72
2022/04/07 00:43:08;;;;;;;5.83;3.77;;;10.00;1.00;;;9.99;62.13;98893.56;4807463;29;20485;-72
2022/04/07 00:45:37;;;;;;;7.77;3.80;;;10.00;1.00;;;9.97;62.22;98901.91;4806033;29;20466;-74
2022/04/07 00:48:07;;;;;;;5.30;3.70;;;10.00;1.00;;;9.98;62.29;98892.75;4807529;29;20449;-72
2022/04/07 00:50:36;;;;;;;12.40;5.33;;;10.00;1.00;;;9.85;62.62;98884.16;4807131;29;20433;-72
2022/04/07 00:53:06;;;;;;;7.80;4.10;;;9.90;1.00;;;9.73;62.86;98884.22;4806987;29;20466;-72
2022/04/07 00:55:37;;;;;;;4.70;3.90;;;9.80;1.00;;;9.62;63.23;98879.75;4807328;29;20431;-72
2022/04/07 00:58:08;;;;;;;8.83;3.77;;;9.80;1.00;;;9.59;63.42;98872.94;4807243;29;20419;-72
2022/04/07 01:00:37;;;;;;;8.23;3.33;;;9.70;1.00;;;9.39;63.81;98866.38;4806682;29;20949;-72
2022/04/07 01:03:07;;;;;;;6.97;3.53;;;9.60;1.00;;;9.27;64.38;98873.72;4807988;29;20197;-73
2022/04/07 01:05:36;;;;;;;5.77;4.40;;;9.50;1.00;;;9.13;64.81;98865.09;4808749;29;20437;-74
2022/04/07 01:08:08;;;;;;;6.47;4.28;;;9.40;1.00;;;9.16;65.05;98870.84;4807197;29;20456;-72
2022/04/07 01:10:39;;;;;;;4.23;3.70;;;9.30;1.00;;;9.19;64.90;98857.94;4807398;29;20225;-74
2022/04/07 01:13:11;;;;;;;6.95;3.90;;;9.30;1.00;;;9.35;64.77;98860.63;4808315;29;20426;-72
2022/04/07 01:15:40;;;;;;;5.63;3.20;;;9.30;1.00;;;9.46;64.33;98856.25;4807346;29;20182;-72
2022/04/07 01:18:09;;;;;;;6.90;4.23;;;9.50;1.00;;;9.68;63.68;98849.06;4821051;29;20451;-72
2022/04/07 01:20:39;;;;;;;5.45;4.03;;;9.60;1.00;;;9.73;63.46;98851.81;4806449;29;20808;-72
2022/04/07 01:23:08;;;;;;;7.17;3.90;;;9.70;1.00;;;9.70;63.45;98846.91;4806402;29;20205;-71
2022/04/07 01:25:39;;;;;;;5.68;3.58;;;9.70;1.00;;;9.72;63.50;98842.09;4806595;29;20422;-74
2022/04/07 01:28:08;;;;;;;5.73;3.70;;;9.70;1.00;;;9.65;63.63;98846.84;4806968;29;20280;-73
2022/04/07 01:30:37;;;;;;;6.83;3.43;;;9.70;1.00;;;9.61;63.82;98840.31;4805231;29;20470;-71
2022/04/07 01:33:07;;;;;;;5.83;3.57;;;9.70;1.00;;;9.54;64.20;98836.94;4806840;29;20470;-73
2022/04/07 01:35:35;;;;;;;4.07;3.57;;;9.60;1.00;;;9.46;64.40;98837.34;4806417;29;20431;-72
2022/04/07 01:38:04;;;;;;;5.90;3.97;;;9.50;1.00;;;9.42;64.42;98833.50;4806319;29;20436;-72
2022/04/07 01:40:36;;;;;;;4.13;3.50;;;9.50;1.00;;;9.48;64.03;98822.56;4805813;29;20562;-73
2022/04/07 01:43:10;;;;;;;6.00;3.80;;;9.50;1.00;;;9.41;64.43;98831.84;4804576;29;20210;-73
2022/04/07 01:45:41;;;;;;;7.97;3.90;;;9.50;1.00;;;9.29;65.00;98817.63;4806176;29;20428;-72
2022/04/07 01:48:11;;;;;;;7.47;4.53;;;9.40;1.00;;;9.25;64.89;98811.06;4806125;29;20944;-71
2022/04/07 01:50:40;;;;;;;6.53;4.50;;;9.40;1.00;;;9.25;65.17;98819.16;4804612;29;20229;-72
2022/04/07 01:53:09;;;;;;;5.97;3.67;;;9.30;1.00;;;9.43;64.58;98818.94;4805506;29;20224;-73
2022/04/07 01:55:40;;;;;;;6.13;4.60;;;9.40;1.00;;;9.39;64.81;98807.00;4806797;29;20209;-73
2022/04/07 01:58:11;;;;;;;6.23;4.83;;;9.40;1.00;;;9.47;64.60;98815.50;4820409;29;20214;-73
2022/04/07 02:00:41;;;;;;;4.90;4.15;;;9.50;1.00;;;9.41;64.80;98810.25;4819810;29;20499;-72
2022/04/07 02:03:10;;;;;;;7.53;5.82;;;9.40;1.00;;;9.48;64.76;98811.75;4805738;29;20644;-71
2022/04/07 02:05:40;;;;;;;5.55;4.22;;;9.40;1.00;;;9.45;64.77;98811.41;4804379;29;20416;-73
2022/04/07 02:08:09;;;;;;;6.10;4.60;;;9.50;1.00;;;9.44;64.95;98809.78;4804543;29;20296;-74
2022/04/07 02:10:38;;;;;;;9.60;4.73;;;9.50;1.00;;;9.45;65.06;98800.59;4805855;29;20429;-72
2022/04/07 02:13:07;;;;;;;9.80;4.88;;;9.40;1.00;;;9.47;64.84;98798.50;4805525;29;20949;-71
2022/04/07 02:15:37;;;;;;;6.10;5.10;;;9.50;1.00;;;9.59;64.69;98801.91;4805623;29;20628;-72
2022/04/07 02:18:06;;;;;;;8.00;6.07;;;9.50;1.00;;;9.57;65.12;98798.66;4804110;29;20463;-73
2022/04/07 02:20:36;;;;;;;5.88;4.95;;;9.50;1.00;;;9.66;64.56;98799.06;4805280;29;20542;-73
2022/04/07 02:23:05;;;;;;;5.72;5.22;;;9.60;1.00;;;9.65;64.50;98792.84;4819779;29;20208;-72
2022/04/07 02:25:33;;;;;;;8.38;5.03;;;9.60;1.00;;;9.55;64.93;98792.66;4805384;29;20178;-72
2022/04/07 02:28:02;;;;;;;8.90;5.40;;;9.60;1.00;;;9.38;65.38;98783.78;4804930;29;20197;-72
2022/04/07 02:30:31;;;;;;;7.95;5.60;;;9.50;1.00;;;9.34;65.70;98788.84;4804999;29;20304;-72
2022/04/07 02:33:01;;;;;;;5.00;4.18;;;9.40;1.00;;;9.18;66.15;98781.56;4805617;29;20217;-72
2022/04/07 02:35:30;;;;;;;5.68;5.00;;;9.30;1.00;;;9.10;66.68;98782.75;4805676;29;20247;-72
2022/04/07 02:38:00;;;;;;;8.60;5.63;;;9.20;1.00;;;9.11;66.56;98776.31;4805160;29;20197;-72
2022/04/07 02:40:29;;;;;;;7.18;6.03;;;9.20;1.00;;;9.14;66.60;98767.75;4805277;29;20296;-72
2022/04/07 02:42:58;;;;;;;14.00;7.00;;;9.20;1.00;;;9.17;66.48;98761.03;4803362;29;20200;-72
2022/04/07 02:45:27;;;;;;;8.23;5.60;;;9.20;1.00;;;9.00;67.10;98761.03;4805023;29;20225;-72
2022/04/07 02:47:55;;;;;;;8.63;5.25;;;9.20;1.00;;;9.09;66.81;98759.56;4803913;29;20197;-71
2022/04/07 02:50:26;;;;;;;11.43;6.45;;;9.20;1.00;;;9.09;66.96;98764.97;4804515;29;20224;-72
2022/04/07 02:52:55;;;;;;;8.70;5.47;;;9.10;1.00;;;8.89;67.33;98759.19;4804836;29;20452;-72
2022/04/07 02:55:24;;;;;;;9.27;6.75;;;9.00;1.00;;;8.83;67.61;98760.16;4804741;29;20285;-71
2022/04/07 02:57:52;;;;;;;6.05;5.45;;;9.00;1.00;;;8.72;68.27;98763.72;4804667;29;20181;-72
2022/04/07 03:00:21;;;;;;;8.65;6.00;;;8.90;1.00;;;8.91;67.86;98765.16;4804665;29;20661;-73
2022/04/07 03:02:50;;;;;;;9.70;6.30;;;8.90;1.00;;;8.87;68.10;98761.31;4803486;29;20197;-72
2022/04/07 03:05:19;;;;;;;9.05;6.38;;;8.90;1.00;;;8.81;68.20;98756.09;4804790;29;20421;-72
2022/04/07 03:07:49;;;;;;;8.32;6.88;;;8.90;1.00;;;8.85;68.32;98757.25;4805082;29;20182;-72
2022/04/07 03:10:18;;;;;;;9.70;7.05;;;8.90;1.00;;;8.92;68.00;98758.72;4805153;29;20743;-72
2022/04/07 03:12:47;;;;;;;7.85;5.95;;;8.90;1.00;;;8.92;68.08;98742.53;4804643;29;20223;-72
2022/04/07 03:15:16;;;;;;;7.30;5.57;;;8.90;1.00;;;8.95;67.78;98731.28;4818001;29;20721;-72
2022/04/07 03:17:45;;;;;;;7.70;5.55;;;9.00;1.00;;;8.95;67.65;98731.28;4804978;29;20542;-71
2022/04/07 03:20:14;;;;;;;8.00;6.28;;;9.00;1.00;;;8.94;67.96;98729.63;4818697;29;20245;-71
2022/04/07 03:22:43;;;;;;;9.77;6.35;;;9.00;1.00;;;8.91;68.11;98723.88;4803433;29;20197;-71
2022/04/07 03:25:14;;;;;;;8.85;7.95;;;9.00;1.00;;;8.97;67.93;98712.13;4804582;29;20201;-71
2022/04/07 03:27:42;;;;;;;12.35;6.00;;;9.00;1.00;;;9.00;67.81;98712.47;4805511;29;20209;-70
2022/04/07 03:30:12;;;;;;;9.68;6.57;;;9.00;1.00;;;8.88;68.19;98709.00;4805348;29;20278;-72
2022/04/07 03:32:41;;;;;;;6.55;5.85;;;9.00;1.00;;;8.93;68.04;98701.00;4804113;29;20229;-71
2022/04/07 03:35:10;;;;;;;10.25;5.65;;;9.00;1.00;;;8.98;67.90;98700.28;4804904;29;20193;-72
2022/04/07 03:37:40;;;;;;;6.60;5.90;;;9.00;1.00;;;8.96;67.89;98695.13;4804128;29;20576;-73
2022/04/07 03:40:11;;;;;;;7.15;5.65;;;9.00;1.00;;;9.13;67.24;98690.56;4804096;29;20217;-72
2022/04/07 03:42:45;;;;;;;10.73;6.15;;;9.10;1.00;;;9.02;67.59;98699.53;4803604;29;20199;-71
2022/04/07 03:45:14;;;;;;;7.65;5.80;;;9.10;1.00;;;9.00;67.74;98707.06;4804080;29;20258;-72
2022/04/07 03:47:43;;;;;;;8.70;7.22;;;9.00;1.00;;;9.03;67.75;98700.34;4804823;29;20268;-72
2022/04/07 03:50:12;;;;;;;10.02;6.45;;;9.10;1.00;;;8.97;67.98;98701.34;4803903;29;20278;-72
2022/04/07 03:52:41;;;;;;;6.38;5.65;;;9.00;1.00;;;9.14;67.67;98696.78;4818190;29;20224;-73
2022/04/07 03:55:11;;;;;;;9.38;6.47;;;9.10;1.00;;;9.04;67.92;98696.59;4818123;29;20247;-73
2022/04/07 03:57:40;;;;;;;8.55;5.05;;;9.10;1.00;;;9.10;67.68;98696.41;4804564;29;20174;-72
2022/04/07 04:00:12;;;;;;;10.02;5.97;;;9.10;1.00;;;9.13;67.44;98682.47;4807244;29;20282;-72
2022/04/07 04:02:40;;;;;;;8.10;5.93;;;9.10;1.00;;;9.14;67.56;98684.09;4814120;29;20170;-72
2022/04/07 04:05:11;;;;;;;10.93;6.00;;;9.10;1.00;;;9.19;67.39;98679.84;4822784;29;20652;-72
2022/04/07 04:07:39;;;;;;;10.77;6.82;;;9.20;1.00;;;9.15;67.56;98683.00;4807766;29;20181;-73
2022/04/07 04:10:09;;;;;;;6.90;5.18;;;9.20;1.00;;;9.26;67.25;98683.16;4806972;29;20216;-73
2022/04/07 04:12:38;;;;;;;9.05;5.63;;;9.20;1.00;;;9.29;67.41;98672.72;4811022;29;20222;-72
2022/04/07 04:15:10;;;;;;;6.45;5.78;;;9.30;1.00;;;9.26;67.36;98667.81;4828681;29;20181;-72
2022/04/07 04:17:39;;;;;;;7.47;6.20;;;9.30;1.00;;;9.39;67.06;98662.03;4828216;29;20170;-72
2022/04/07 04:20:10;;;;;;;9.45;5.95;;;9.30;1.00;;;9.46;66.76;98656.47;4828333;29;20202;-71
2022/04/07 04:22:39;;;;;;;8.88;5.30;;;9.40;1.00;;;9.49;66.89;98655.97;4829033;29;20192;-71
2022/04/07 04:25:09;;;;;;;8.40;5.50;;;9.40;1.00;;;9.46;66.83;98656.47;4820667;29;20582;-72
2022/04/07 04:27:40;;;;;;;11.93;6.28;;;9.40;1.00;;;9.50;66.65;98647.63;4823527;29;20202;-71
2022/04/07 04:30:13;;;;;;;8.80;6.30;;;9.40;1.00;;;9.59;66.03;98645.31;4807451;29;20217;-72
2022/04/07 04:32:43;;;;;;;7.45;5.75;;;9.50;1.00;;;9.68;66.34;98637.63;4807296;29;20615;-73
2022/04/07 04:35:13;;;;;;;7.53;5.30;;;9.60;1.00;;;9.71;66.22;98627.13;4820885;29;20290;-71
2022/04/07 04:37:42;;;;;;;7.88;5.75;;;9.60;1.00;;;9.62;66.56;98622.41;4806566;29;20254;-72
2022/04/07 04:40:12;;;;;;;6.97;6.28;;;9.60;1.00;;;9.70;65.98;98625.47;4806186;29;20270;-72
2022/04/07 04:42:42;;;;;;;9.10;6.20;;;9.60;1.00;;;9.65;66.22;98617.31;4806466;29;20189;-72
2022/04/07 04:45:13;;;;;;;11.23;6.20;;;9.60;1.00;;;9.65;66.38;98611.91;4806764;29;20174;-71
2022/04/07 04:47:41;;;;;;;7.45;5.28;;;9.60;1.00;;;9.76;65.98;98618.25;4806200;29;20433;-72
2022/04/07 04:50:13;;;;;;;6.80;5.60;;;9.70;1.00;;;9.78;65.82;98616.13;4806486;29;20209;-72
2022/04/07 04:52:42;;;;;;;7.40;5.27;;;9.70;1.00;;;9.78;65.98;98621.53;4805005;29;20447;-71
2022/04/07 04:55:11;;;;;;;10.87;5.50;;;9.70;1.00;;;9.79;65.85;98605.06;4823215;24;20537;-66
2022/04/07 04:57:39;;;;;;;7.18;5.20;;;9.70;1.00;;;9.77;66.03;98607.22;4821635;29;20428;-65
2022/04/07 05:00:11;;;;;;;6.27;5.40;;;9.80;1.00;;;9.85;65.83;98603.25;4816773;29;20185;-65
2022/04/07 05:02:41;;;;;;;9.70;6.00;;;9.80;1.00;;;9.76;65.95;98597.47;4819968;29;20435;-65
2022/04/07 05:05:11;;;;;;;8.17;5.17;;;9.70;1.00;;;9.83;65.82;98598.06;4808503;29;20458;-66
2022/04/07 05:07:40;;;;;;;7.13;5.03;;;9.70;1.00;;;9.81;65.78;98600.22;4807676;29;20462;-67
2022/04/07 05:10:10;;;;;;;8.40;5.30;;;9.70;1.00;;;9.84;65.68;98585.41;4827504;24;20525;-68
2022/04/07 05:12:39;;;;;;;5.60;4.78;;;9.80;1.00;;;9.82;65.71;98585.66;4821294;29;20197;-69
2022/04/07 05:15:09;;;;;;;5.28;4.32;;;9.70;1.00;;;9.91;65.51;98588.72;4808625;29;20737;-66
2022/04/07 05:17:38;;;;;;;5.67;4.27;;;9.80;1.00;;;9.92;65.47;98585.75;4808551;29;20659;-68
2022/04/07 05:20:10;;;;;;;8.77;4.80;;;9.90;1.00;;;10.03;65.10;98582.09;4808140;29;20429;-68
2022/04/07 05:22:40;;;;;;;5.13;4.60;;;9.90;1.00;;;10.03;65.22;98567.78;4809963;29;20201;-68
2022/04/07 05:25:10;;;;;;;6.55;4.38;;;9.90;1.00;;;10.04;65.26;98562.13;4810212;29;20438;-68
2022/04/07 05:27:40;;;;;;;5.43;4.80;;;10.00;1.00;;;10.09;65.20;98565.94;4810784;29;20219;-67
2022/04/07 05:30:12;;;;;;;5.60;3.67;;;10.00;1.00;;;10.18;64.84;98561.72;4810757;29;20504;-67
2022/04/07 05:32:41;;;;;;;10.30;4.40;;;10.10;1.00;;;10.13;65.01;98559.78;4810230;29;20418;-68
2022/04/07 05:35:12;;;;;;;6.07;4.60;;;10.00;1.00;;;10.13;64.89;98558.94;4809482;29;20478;-68
2022/04/07 05:37:41;;;;;;;8.47;5.30;;;10.00;1.00;;;10.19;64.90;98553.38;4806856;29;20988;-69
2022/04/07 05:40:13;;;;;;;6.05;4.15;;;10.10;1.00;;;10.19;64.68;98549.84;4806383;29;20960;-68
2022/04/07 05:42:42;;;;;;;4.97;4.43;;;10.10;1.00;;;10.30;64.50;98554.28;4805894;29;20206;-68
2022/04/07 05:45:11;;;;;;;7.30;5.03;;;10.10;1.00;;;10.30;64.48;98543.47;4806229;29;20498;-69
2022/04/07 05:47:41;;;;;;;6.63;5.00;;;10.20;1.00;;;10.27;64.53;98538.56;4807599;29;20505;-67
2022/04/07 05:50:12;;;;;;;5.57;4.90;;;10.20;1.00;;;10.34;64.46;98536.47;4806164;29;20459;-67
2022/04/07 05:52:41;;;;;;;4.90;4.10;;;10.20;1.00;;;10.41;64.35;98539.78;4806436;29;20470;-68
2022/04/07 05:55:10;;;;;;;6.20;4.97;;;10.30;1.00;;;10.49;64.12;98543.91;4805692;29;20299;-68
2022/04/07 05:57:39;;;;;;;5.40;4.50;;;10.30;1.00;;;10.58;63.92;98535.06;4804377;29;20426;-69
2022/04/07 06:00:11;;;;;;;7.23;4.37;;;10.40;1.00;;;10.70;63.76;98534.84;4805628;29;21078;-70
2022/04/07 06:02:41;;;;;;;7.50;4.80;;;10.50;1.00;;;10.75;63.41;98527.59;4805721;29;20790;-68
2022/04/07 06:05:16;;;;;;;5.93;5.10;;;10.60;1.00;;;10.83;63.14;98531.72;4798345;29;20947;-69
2022/04/07 06:07:46;;;;;;;5.67;4.60;;;10.60;1.00;;;10.81;63.08;98526.56;4804454;29;20462;-69
2022/04/07 06:10:16;;;;;;;7.03;4.00;;;10.70;1.00;;;11.01;62.75;98535.88;4805194;29;20679;-66
2022/04/07 06:12:46;;;;;;;4.73;3.80;;;10.80;1.00;;;10.99;62.66;98529.94;4788125;29;20467;-68
2022/04/07 06:15:15;;;;;;;4.20;3.70;;;10.80;1.00;;;11.01;62.68;98527.75;4783029;30;20540;-68
2022/04/07 06:17:45;;;;;;;9.47;4.50;;;10.80;1.00;;;11.02;62.47;98529.38;4785148;29;20403;-67
2022/04/07 06:20:16;;;;;;;6.50;4.43;;;10.90;1.00;;;11.10;62.37;98523.47;4783131;30;20547;-68
2022/04/07 06:22:46;;;;;;;5.77;5.13;;;10.90;1.00;;;11.13;62.62;98515.66;4785563;29;20444;-69
2022/04/07 06:25:15;;;;;;;5.73;3.87;;;10.90;1.00;;;11.19;62.42;98513.78;4780109;30;20450;-69
2022/04/07 06:27:47;;;;;;;5.00;4.47;;;11.00;1.00;;;11.31;62.00;98507.06;4786739;29;20436;-67
2022/04/07 06:30:19;;;;;;;4.40;3.50;;;11.10;1.00;;;11.40;61.50;98506.56;4786803;29;20550;-68
2022/04/07 06:32:49;;;;;;;6.17;4.00;;;11.10;1.00;;;11.49;61.27;98508.50;4785618;29;20414;-69
2022/04/07 06:35:19;;;;;;;4.83;4.00;;;11.30;1.00;;;11.47;61.46;98502.53;4787200;29;20512;-69
2022/04/07 06:37:52;;;;;;;4.50;4.00;;;11.30;1.00;;;11.50;61.22;98504.72;4787033;29;20482;-69
2022/04/07 06:40:23;;;;;;;4.30;2.93;;;11.30;1.00;;;11.57;61.25;98504.47;4787123;29;20502;-68
2022/04/07 06:42:55;;;;;;;6.70;3.60;;;11.40;1.00;;;11.76;60.76;98503.72;4786910;29;20423;-69
2022/04/07 06:45:26;;;;;;;7.50;5.37;;;11.60;1.00;;;11.70;60.88;98506.66;4786790;29;20927;-70
2022/04/07 06:47:56;;;;;;;5.93;3.97;;;11.60;1.00;;;11.59;62.00;98497.69;4785804;29;20458;-67
2022/04/07 06:50:27;;;;;;;4.10;3.70;;;11.50;1.00;;;11.49;62.92;98494.94;4786737;29;20955;-67
2022/04/07 06:52:57;;;;;;;4.40;3.93;;;11.40;1.00;;;11.55;62.60;98482.25;4787332;29;20819;-68
2022/04/07 06:55:26;;;;;;;3.50;3.20;;;11.40;1.00;;;11.63;62.30;98487.94;4786731;29;20446;-68
2022/04/07 06:57:58;;;;;;;4.97;3.80;;;11.50;1.00;;;11.82;62.22;98472.03;4786748;29;20505;-68
2022/04/07 07:00:29;;;;;;;5.10;3.77;;;11.60;1.00;;;12.11;61.27;98467.72;4786407;29;20944;-68
2022/04/07 07:03:01;;;;;;;9.73;3.73;;;11.80;1.00;;;12.19;61.03;98453.66;4786838;29;20422;-66
2022/04/07 07:05:33;;;;;;;9.53;4.37;;;11.90;1.00;;;12.05;60.69;98457.94;4786444;29;20439;-67
2022/04/07 07:08:12;;;;;;;8.07;3.60;;;11.90;1.00;;;11.98;60.89;98460.13;4786378;29;20930;-67
2022/04/07 07:10:43;;;;;;;4.53;3.47;;;11.90;1.00;;;11.91;60.64;98450.66;4786146;29;20489;-68
2022/04/07 07:13:12;;;;;;;3.80;3.20;;;11.80;1.00;;;11.94;59.94;98452.81;4785597;29;20419;-67
2022/04/07 07:15:42;;;;;;;8.40;3.43;;;11.80;1.00;;;11.95;60.32;98451.75;4794267;29;20575;-69
2022/04/07 07:18:11;;;;;;;5.73;4.10;;;11.80;1.00;;;12.01;59.92;98437.91;4797171;29;20435;-69
2022/04/07 07:20:41;;;;;;;12.13;4.33;;;11.90;1.00;;;12.41;59.04;98439.78;4796895;29;20420;-68
2022/04/07 07:23:10;;;;;;;4.63;3.50;;;12.10;1.00;;;12.73;57.88;98420.44;4799174;29;20420;-70
2022/04/07 07:25:39;;;;;;;4.73;4.00;;;12.30;1.00;;;13.12;56.96;98427.97;4797753;29;20455;-69
2022/04/07 07:28:09;;;;;;;8.17;3.60;;;12.70;1.00;;;13.10;56.37;98425.50;4796436;29;20406;-69
2022/04/07 07:30:38;;;;;;;6.03;4.07;;;12.80;1.00;;;13.11;56.52;98427.16;4787088;29;20435;-67
2022/04/07 07:33:08;;;;;;;3.57;3.03;;;12.90;1.00;;;12.99;56.14;98413.03;4785959;29;20406;-67
2022/04/07 07:35:36;;;;;;;24.30;14.77;;;12.90;1.00;;;13.04;56.11;98411.13;4786563;29;20549;-68
2022/04/07 07:38:07;;;;;;;9.60;6.50;;;13.00;1.00;;;12.90;56.14;98403.84;4786389;29;20418;-67
2022/04/07 07:40:36;;;;;;;7.90;3.90;;;12.80;1.00;;;12.88;56.40;98395.16;4787470;29;20436;-69
2022/04/07 07:43:06;;;;;;;4.47;3.30;;;12.70;1.00;;;12.72;56.52;98401.75;4787913;29;20497;-68
2022/04/07 07:45:36;;;;;;;4.17;3.40;;;12.60;1.00;;;12.72;56.32;98402.56;4786790;30;21005;-68
2022/04/07 07:48:26;;;;;;;6.50;2.90;;;12.60;1.00;;;13.15;55.74;98392.91;4786114;29;20519;-69
2022/04/07 07:50:55;;;;;;;5.33;2.70;;;12.80;1.00;;;13.51;54.26;98392.72;4786133;29;20814;-67
2022/04/07 07:53:26;;;;;;;3.97;3.10;;;13.20;1.00;;;13.72;53.95;98394.19;4786051;29;20876;-68
2022/04/07 07:55:57;;;;;;;3.53;2.57;;;13.30;1.00;;;13.79;53.65;98378.38;4785946;29;20468;-67
2022/04/07 07:58:26;;;;;;;3.10;2.60;;;13.40;1.00;;;13.87;52.96;98364.19;4786024;29;20443;-67
2022/04/07 08:00:56;;;;;;;3.80;2.70;;;13.60;1.00;;;14.00;52.69;98368.13;4793160;29;20895;-67
2022/04/07 08:03:25;;;;;;;5.03;2.47;;;13.70;1.00;;;14.02;52.67;98349.66;4801438;29;20792;-69
2022/04/07 08:05:54;;;;;;;2.60;2.33;;;13.70;1.00;;;13.72;52.91;98351.53;4801794;29;20438;-68
2022/04/07 08:08:22;;;;;;;3.37;2.27;;;13.70;1.00;;;13.71;53.26;98349.09;4800049;29;20534;-69
2022/04/07 08:10:53;;;;;;;4.33;2.67;;;13.60;1.00;;;13.55;53.41;98339.44;4803609;29;20449;-68
2022/04/07 08:13:22;;;;;;;4.20;2.90;;;13.50;1.00;;;13.88;53.17;98334.00;4804088;29;20470;-68
2022/04/07 08:15:50;;;;;;;2.30;2.10;;;13.60;1.00;;;13.94;53.08;98343.72;4803747;29;20473;-69
2022/04/07 08:18:19;;;;;;;5.67;3.20;;;13.70;1.00;;;14.18;53.01;98338.34;4803999;29;20414;-67
2022/04/07 08:20:48;;;;;;;4.03;1.90;;;13.80;1.00;;;14.27;52.68;98333.09;4803635;29;20409;-67
2022/04/07 08:23:17;;;;;;;4.77;2.13;;;14.00;1.00;;;14.34;52.52;98325.38;4803712;29;20655;-67
2022/04/07 08:25:46;;;;;;;4.00;2.37;;;14.10;1.00;;;14.55;51.97;98331.44;4803518;29;20500;-68
2022/04/07 08:28:16;;;;;;;4.53;2.47;;;14.30;1.00;;;14.71;51.78;98320.09;4803276;29;20470;-67
2022/04/07 08:30:45;;;;;;;6.73;2.53;;;14.50;1.00;;;14.26;51.92;98318.69;4803368;29;20480;-69
2022/04/07 08:33:14;;;;;;;2.87;2.43;;;14.20;1.00;;;14.18;52.54;98323.94;4803482;29;20492;-69
2022/04/07 08:35:42;;;;;;;7.30;2.30;;;14.00;1.00;;;14.48;51.82;98309.19;4803455;29;20490;-69
2022/04/07 08:38:14;;;;;;;2.90;2.07;;;14.20;1.00;;;14.22;52.20;98312.19;4803526;29;20420;-70
2022/04/07 08:40:44;;;;;;;5.07;1.83;;;14.10;1.00;;;13.99;52.66;98302.06;4803288;29;20423;-70
2022/04/07 08:43:15;;;;;;;5.07;2.53;;;13.90;1.00;;;14.17;52.07;98298.66;4803597;29;20489;-69
2022/04/07 08:45:45;;;;;;;4.47;2.20;;;13.90;1.00;;;14.41;51.87;98278.84;4805378;29;20402;-69
2022/04/07 08:48:14;;;;;;;3.30;2.10;;;14.10;1.00;;;14.19;51.85;98290.19;4806819;29;21046;-68
2022/04/07 08:50:45;;;;;;;3.90;2.90;;;14.00;1.00;;;14.33;51.43;98272.88;4806789;29;20848;-68
2022/04/07 08:53:15;;;;;;;3.43;2.00;;;14.10;1.00;;;14.31;51.74;98305.03;4806660;29;20471;-68
2022/04/07 08:55:43;;;;;;;2.23;1.80;;;14.00;1.00;;;14.22;51.58;98305.94;4807063;29;20943;-68
2022/04/07 08:58:17;;;;;;;4.30;2.07;;;14.10;1.00;;;14.46;51.19;98286.94;4806310;29;20405;-69
2022/04/07 09:00:49;;;;;;;3.57;1.60;;;14.20;1.00;;;14.42;51.28;98269.56;4805205;29;20861;-69
2022/04/07 09:03:18;;;;;;;1.60;1.50;;;14.20;1.00;;;14.49;51.12;98272.75;4806298;29;20525;-68
2022/04/07 09:05:59;;;;;;;3.23;1.90;;;14.30;1.00;;;14.27;51.64;98270.53;4806486;29;20470;-70
2022/04/07 09:08:33;;;;;;;4.10;2.10;;;14.20;1.00;;;14.15;52.17;98273.63;4806177;29;20470;-69
2022/04/07 09:11:05;;;;;;;1.57;1.13;;;14.10;1.00;;;14.23;51.88;98264.06;4806347;29;20435;-69
2022/04/07 09:13:36;;;;;;;3.37;1.57;;;14.10;1.00;;;14.51;51.50;98278.72;4806603;29;20466;-69
2022/04/07 09:16:10;;;;;;;3.70;2.30;;;14.20;1.00;;;14.37;51.84;98250.59;4806919;29;20445;-69
2022/04/07 09:18:41;;;;;;;7.70;2.13;;;14.20;1.00;;;14.53;51.93;98246.56;4806650;29;21009;-68
2022/04/07 09:21:19;;;;;;;3.53;1.40;;;14.30;1.00;;;14.68;51.64;98238.19;4806825;29;20410;-67
2022/04/07 09:23:47;;;;;;;2.07;1.30;;;14.40;1.00;;;14.72;51.43;98231.06;4806696;29;20413;-69
2022/04/07 09:26:17;;;;;;;1.60;1.30;;;14.50;1.00;;;14.71;51.65;98224.84;4806878;29;20419;-69
2022/04/07 09:28:46;;;;;;;5.27;1.57;;;14.50;1.00;;;14.98;50.80;98216.00;4806380;29;20429;-67
2022/04/07 09:31:18;;;;;;;2.53;1.57;;;14.60;1.00;;;14.80;50.74;98197.75;4806606;29;20715;-68
2022/04/07 09:33:54;;;;;;;2.53;1.10;;;14.70;1.00;;;14.57;51.64;98207.59;4807648;29;20454;-68
2022/04/07 09:36:24;;;;;;;3.23;1.53;;;14.50;1.00;;;14.66;51.33;98194.97;4805899;29;20473;-69
2022/04/07 09:38:55;;;;;;;4.23;1.63;;;14.50;1.00;;;14.83;51.13;98180.81;4808287;29;20459;-69
2022/04/07 09:41:27;;;;;;;1.80;0.90;;;14.60;1.00;;;15.32;50.50;98182.22;4810781;29;20731;-69
2022/04/07 09:43:59;;;;;;;3.70;1.40;;;14.80;1.00;;;15.56;49.35;98166.56;4813688;29;20487;-68
2022/04/07 09:46:38;;;;;;;3.63;1.63;;;15.10;1.00;;;15.44;49.50;98163.50;4806506;29;20448;-69
2022/04/07 09:49:10;;;;;;;3.67;1.30;;;15.20;1.00;;;15.45;49.16;98146.03;4805826;29;20565;-69
2022/04/07 09:51:41;;;;;;;6.20;1.33;;;15.20;1.00;;;15.18;49.35;98161.22;4805824;29;20442;-68
2022/04/07 09:54:11;;;;;;;1.40;1.20;;;15.10;1.00;;;14.99;50.02;98152.28;4805656;29;20444;-69
2022/04/07 09:56:40;;;;;;;5.67;1.80;;;15.00;1.00;;;14.88;50.05;98153.53;4804213;29;20604;-69
2022/04/07 09:59:10;;;;;;;2.63;1.70;;;14.80;1.00;;;14.90;49.88;98140.44;4806451;29;20462;-70
2022/04/07 10:01:41;;;;;;;1.80;0.90;;;14.80;1.00;;;15.04;49.94;98149.47;4807830;29;20417;-69
2022/04/07 10:04:10;;;;;;;3.93;1.83;;;14.80;1.00;;;15.09;49.33;98124.88;4809640;29;20417;-69
2022/04/07 10:06:40;;;;;;;2.80;1.03;;;14.80;1.00;;;15.15;49.44;98129.09;4809204;29;20848;-69
2022/04/07 10:09:11;;;;;;;3.63;1.40;;;14.90;1.00;;;15.11;49.30;98109.03;4808256;29;20470;-68
2022/04/07 10:11:43;;;;;;;3.83;1.37;;;15.00;1.00;;;14.95;49.43;98107.69;4807423;29;20515;-69
2022/04/07 10:14:17;;;;;;;3.10;1.50;;;14.80;1.00;;;14.89;49.83;98089.81;4807456;29;20442;-69
2022/04/07 10:16:48;;;;;;;1.70;1.10;;;14.70;1.00;;;14.79;49.58;98098.16;4807810;29;20492;-70
2022/04/07 10:19:26;;;;;;;2.17;1.40;;;14.70;1.00;;;15.18;48.97;98084.13;4807707;29;20437;-69
2022/04/07 10:22:20;;;;;;;1.40;1.17;;;14.80;1.00;;;15.22;48.96;98075.06;4808459;29;20911;-69
2022/04/07 10:24:56;;;;;;;1.93;1.33;;;15.00;1.00;;;15.22;48.76;98072.34;4805956;29;20425;-68
2022/04/07 10:27:41;;;;;;;2.23;1.20;;;15.00;1.00;;;15.03;49.19;98054.44;4806084;29;20438;-67
2022/04/07 10:30:12;;;;;;;3.60;1.33;;;14.90;1.00;;;15.03;49.54;98062.63;4805462;29;20881;-69
2022/04/07 10:32:44;;;;;;;1.80;1.17;;;14.80;1.00;;;14.91;49.76;98051.41;4805773;29;20415;-68
2022/04/07 10:35:36;;;;;;;1.57;1.10;;;14.70;1.00;;;14.78;50.05;98053.78;4806419;29;20956;-68
2022/04/07 10:38:09;;;;;;;3.00;1.20;;;14.60;1.00;;;14.51;50.49;98036.56;4805677;29;20476;-67
2022/04/07 10:40:50;;;;;;;4.57;1.17;;;14.40;1.00;;;14.70;50.64;98007.41;4805640;29;20406;-68
2022/04/07 10:43:25;;;;;;;5.97;2.43;;;14.50;1.00;;;14.84;50.55;98018.31;4805998;29;20435;-68
2022/04/07 10:46:11;;;;;;;1.77;1.40;;;14.50;1.00;;;14.42;51.14;98000.25;4806036;29;20402;-68